sensor_id;sensor_type;location;lat;lon;timestamp;pressure;altitude;pressure_sealevel;temperature;humidity
29433;BME280;16405;53.964;13.448;2023-04-24T00:00:57;100049.91;;;8.18;100.00
29433;BME280;16405;53.964;13.448;2023-04-24T00:03:25;100045.84;;;8.13;100.00
29433;BME280;16405;53.964;13.448;2023-04-24T00:05:51;100031.38;;;8.04;100.00
29433;BME280;16405;53.964;13.448;2023-04-24T00:08:18;100035.13;;;7.98;100.00
29433;BME280;16405;53.964;13.448;2023-04-24T00:10:44;100030.81;;;7.97;100.00
29433;BME280;16405;53.964;13.448;2023-04-24T00:13:10;100028.81;;;8.02;100.00
29433;BME280;16405;53.964;13.448;2023-04-24T00:15:36;100024.38;;;8.05;100.00
29433;BME280;16405;53.964;13.448;2023-04-24T00:18:04;100013.25;;;7.99;100.00
29433;BME280;16405;53.964;13.448;2023-04-24T00:20:30;100008.00;;;7.99;100.00
29433;BME280;16405;53.964;13.448;2023-04-24T00:22:58;100006.44;;;7.95;100.00
29433;BME280;16405;53.964;13.448;2023-04-24T00:25:23;100002.22;;;7.93;100.00
29433;BME280;16405;53.964;13.448;2023-04-24T00:27:49;100000.72;;;7.87;100.00
29433;BME280;16405;53.964;13.448;2023-04-24T00:30:15;99987.59;;;7.87;100.00
29433;BME280;16405;53.964;13.448;2023-04-24T00:32:49;99985.59;;;7.92;100.00
29433;BME280;16405;53.964;13.448;2023-04-24T00:35:14;99985.50;;;7.76;100.00
29433;BME280;16405;53.964;13.448;2023-04-24T00:37:40;99975.00;;;7.76;100.00
29433;BME280;16405;53.964;13.448;2023-04-24T00:40:07;99969.22;;;7.70;100.00
29433;BME280;16405;53.964;13.448;2023-04-24T00:42:33;99962.56;;;7.63;100.00
29433;BME280;16405;53.964;13.448;2023-04-24T00:45:02;99960.06;;;7.59;100.00
29433;BME280;16405;53.964;13.448;2023-04-24T00:47:28;99962.13;;;7.53;100.00
29433;BME280;16405;53.964;13.448;2023-04-24T00:49:55;99949.09;;;7.51;100.00
29433;BME280;16405;53.964;13.448;2023-04-24T00:52:21;99943.38;;;7.43;100.00
29433;BME280;16405;53.964;13.448;2023-04-24T00:54:52;99944.28;;;7.42;100.00
29433;BME280;16405;53.964;13.448;2023-04-24T00:57:18;99935.88;;;7.35;100.00
29433;BME280;16405;53.964;13.448;2023-04-24T00:59:44;99934.03;;;7.37;100.00
29433;BME280;16405;53.964;13.448;2023-04-24T01:02:10;99926.88;;;7.41;100.00
29433;BME280;16405;53.964;13.448;2023-04-24T01:04:37;99913.69;;;7.43;100.00
29433;BME280;16405;53.964;13.448;2023-04-24T01:07:03;99906.63;;;7.45;100.00
29433;BME280;16405;53.964;13.448;2023-04-24T01:09:46;99900.31;;;7.49;100.00
29433;BME280;16405;53.964;13.448;2023-04-24T01:12:15;99902.81;;;7.52;100.00
29433;BME280;16405;53.964;13.448;2023-04-24T01:14:41;99900.03;;;7.55;100.00
29433;BME280;16405;53.964;13.448;2023-04-24T01:17:07;99902.38;;;7.61;100.00
29433;BME280;16405;53.964;13.448;2023-04-24T01:19:34;99907.16;;;7.70;100.00
29433;BME280;16405;53.964;13.448;2023-04-24T01:22:02;99910.44;;;7.75;100.00
29433;BME280;16405;53.964;13.448;2023-04-24T01:24:29;99918.06;;;7.80;100.00
29433;BME280;16405;53.964;13.448;2023-04-24T01:26:55;99917.91;;;7.83;100.00
29433;BME280;16405;53.964;13.448;2023-04-24T01:29:21;99925.00;;;7.81;100.00
29433;BME280;16405;53.964;13.448;2023-04-24T01:31:47;99919.91;;;7.78;100.00
29433;BME280;16405;53.964;13.448;2023-04-24T01:34:13;99916.41;;;7.77;100.00
29433;BME280;16405;53.964;13.448;2023-04-24T01:36:43;99913.13;;;7.74;100.00
29433;BME280;16405;53.964;13.448;2023-04-24T01:39:11;99912.34;;;7.72;100.00
29433;BME280;16405;53.964;13.448;2023-04-24T01:41:37;99914.78;;;7.75;100.00
29433;BME280;16405;53.964;13.448;2023-04-24T01:44:03;99911.63;;;7.68;100.00
29433;BME280;16405;53.964;13.448;2023-04-24T01:46:29;99901.06;;;7.70;100.00
29433;BME280;16405;53.964;13.448;2023-04-24T01:49:01;99894.13;;;7.69;100.00
29433;BME280;16405;53.964;13.448;2023-04-24T01:51:27;99879.19;;;7.71;100.00
29433;BME280;16405;53.964;13.448;2023-04-24T01:53:52;99882.66;;;7.71;100.00
29433;BME280;16405;53.964;13.448;2023-04-24T01:56:20;99879.13;;;7.72;100.00
29433;BME280;16405;53.964;13.448;2023-04-24T01:58:53;99867.50;;;7.78;100.00
29433;BME280;16405;53.964;13.448;2023-04-24T02:01:21;99862.94;;;7.81;100.00
29433;BME280;16405;53.964;13.448;2023-04-24T02:03:46;99864.78;;;7.79;100.00
29433;BME280;16405;53.964;13.448;2023-04-24T02:06:12;99867.97;;;7.86;100.00
29433;BME280;16405;53.964;13.448;2023-04-24T02:08:38;99868.41;;;7.94;100.00
29433;BME280;16405;53.964;13.448;2023-04-24T02:11:04;99863.19;;;7.94;100.00
29433;BME280;16405;53.964;13.448;2023-04-24T02:13:30;99860.50;;;7.96;100.00
29433;BME280;16405;53.964;13.448;2023-04-24T02:15:58;99861.97;;;8.01;100.00
29433;BME280;16405;53.964;13.448;2023-04-24T02:18:24;99854.94;;;8.02;100.00
29433;BME280;16405;53.964;13.448;2023-04-24T02:20:50;99850.41;;;8.06;100.00
29433;BME280;16405;53.964;13.448;2023-04-24T02:23:16;99849.47;;;8.07;100.00
29433;BME280;16405;53.964;13.448;2023-04-24T02:25:42;99852.09;;;8.07;100.00
29433;BME280;16405;53.964;13.448;2023-04-24T02:28:10;99844.75;;;8.13;100.00
29433;BME280;16405;53.964;13.448;2023-04-24T02:30:43;99851.56;;;8.17;100.00
29433;BME280;16405;53.964;13.448;2023-04-24T02:33:09;99852.50;;;8.16;100.00
29433;BME280;16405;53.964;13.448;2023-04-24T02:35:35;99846.91;;;8.22;100.00
29433;BME280;16405;53.964;13.448;2023-04-24T02:38:01;99841.06;;;8.17;100.00
29433;BME280;16405;53.964;13.448;2023-04-24T02:40:34;99839.56;;;8.29;100.00
29433;BME280;16405;53.964;13.448;2023-04-24T02:43:00;99835.97;;;8.32;100.00
29433;BME280;16405;53.964;13.448;2023-04-24T02:45:26;99843.22;;;8.27;100.00
29433;BME280;16405;53.964;13.448;2023-04-24T02:47:51;99840.53;;;8.28;100.00
29433;BME280;16405;53.964;13.448;2023-04-24T02:50:25;99843.84;;;8.32;100.00
29433;BME280;16405;53.964;13.448;2023-04-24T02:52:50;99829.00;;;8.31;100.00
29433;BME280;16405;53.964;13.448;2023-04-24T02:55:16;99827.94;;;8.35;100.00
29433;BME280;16405;53.964;13.448;2023-04-24T02:57:42;99818.28;;;8.35;100.00
29433;BME280;16405;53.964;13.448;2023-04-24T03:00:09;99821.47;;;8.42;100.00
29433;BME280;16405;53.964;13.448;2023-04-24T03:02:35;99819.59;;;8.44;100.00
29433;BME280;16405;53.964;13.448;2023-04-24T03:05:03;99818.78;;;8.44;100.00
29433;BME280;16405;53.964;13.448;2023-04-24T03:07:30;99822.22;;;8.44;100.00
29433;BME280;16405;53.964;13.448;2023-04-24T03:09:56;99820.06;;;8.35;100.00
29433;BME280;16405;53.964;13.448;2023-04-24T03:12:24;99811.59;;;8.30;100.00
29433;BME280;16405;53.964;13.448;2023-04-24T03:14:57;99811.50;;;8.31;100.00
29433;BME280;16405;53.964;13.448;2023-04-24T03:17:22;99815.50;;;8.38;100.00
29433;BME280;16405;53.964;13.448;2023-04-24T03:19:48;99815.41;;;8.40;100.00
29433;BME280;16405;53.964;13.448;2023-04-24T03:22:14;99800.69;;;8.37;100.00
29433;BME280;16405;53.964;13.448;2023-04-24T03:24:40;99800.03;;;8.34;100.00
29433;BME280;16405;53.964;13.448;2023-04-24T03:27:06;99803.31;;;8.37;100.00
29433;BME280;16405;53.964;13.448;2023-04-24T03:29:34;99791.13;;;8.36;100.00
29433;BME280;16405;53.964;13.448;2023-04-24T03:32:00;99783.44;;;8.16;100.00
29433;BME280;16405;53.964;13.448;2023-04-24T03:34:26;99782.34;;;8.20;100.00
29433;BME280;16405;53.964;13.448;2023-04-24T03:36:51;99778.13;;;8.17;100.00
29433;BME280;16405;53.964;13.448;2023-04-24T03:39:18;99776.03;;;8.24;100.00
29433;BME280;16405;53.964;13.448;2023-04-24T03:41:44;99770.09;;;8.20;100.00
29433;BME280;16405;53.964;13.448;2023-04-24T03:44:12;99765.41;;;8.27;100.00
29433;BME280;16405;53.964;13.448;2023-04-24T03:46:38;99775.91;;;8.27;100.00
29433;BME280;16405;53.964;13.448;2023-04-24T03:49:03;99775.03;;;8.27;100.00
29433;BME280;16405;53.964;13.448;2023-04-24T03:51:29;99774.69;;;8.33;100.00
29433;BME280;16405;53.964;13.448;2023-04-24T03:53:57;99773.88;;;8.32;100.00
29433;BME280;16405;53.964;13.448;2023-04-24T03:56:22;99777.19;;;8.36;100.00
29433;BME280;16405;53.964;13.448;2023-04-24T03:58:48;99765.69;;;8.38;100.00
29433;BME280;16405;53.964;13.448;2023-04-24T04:01:23;99759.28;;;8.44;100.00
29433;BME280;16405;53.964;13.448;2023-04-24T04:03:50;99766.50;;;8.56;100.00
29433;BME280;16405;53.964;13.448;2023-04-24T04:06:15;99754.16;;;8.58;100.00
29433;BME280;16405;53.964;13.448;2023-04-24T04:08:48;99768.91;;;8.77;100.00
29433;BME280;16405;53.964;13.448;2023-04-24T04:11:14;99776.44;;;8.83;100.00
29433;BME280;16405;53.964;13.448;2023-04-24T04:13:40;99776.09;;;8.89;100.00
29433;BME280;16405;53.964;13.448;2023-04-24T04:16:06;99778.06;;;9.01;100.00
29433;BME280;16405;53.964;13.448;2023-04-24T04:18:32;99779.41;;;9.09;100.00
29433;BME280;16405;53.964;13.448;2023-04-24T04:21:05;99774.16;;;9.24;100.00
29433;BME280;16405;53.964;13.448;2023-04-24T04:23:31;99774.41;;;9.36;100.00
29433;BME280;16405;53.964;13.448;2023-04-24T04:25:57;99771.50;;;9.40;100.00
29433;BME280;16405;53.964;13.448;2023-04-24T04:28:23;99774.03;;;9.42;100.00
29433;BME280;16405;53.964;13.448;2023-04-24T04:30:53;99764.19;;;9.45;100.00
29433;BME280;16405;53.964;13.448;2023-04-24T04:33:23;99774.81;;;9.44;100.00
29433;BME280;16405;53.964;13.448;2023-04-24T04:35:50;99769.09;;;9.52;100.00
29433;BME280;16405;53.964;13.448;2023-04-24T04:38:22;99768.41;;;9.64;100.00
29433;BME280;16405;53.964;13.448;2023-04-24T04:40:48;99778.56;;;10.15;100.00
29433;BME280;16405;53.964;13.448;2023-04-24T04:43:14;99782.69;;;10.19;100.00
29433;BME280;16405;53.964;13.448;2023-04-24T04:45:41;99779.47;;;9.99;100.00
29433;BME280;16405;53.964;13.448;2023-04-24T04:48:09;99789.34;;;9.96;100.00
29433;BME280;16405;53.964;13.448;2023-04-24T04:50:38;99798.06;;;9.96;100.00
29433;BME280;16405;53.964;13.448;2023-04-24T04:53:04;99794.59;;;9.96;100.00
29433;BME280;16405;53.964;13.448;2023-04-24T04:55:30;99789.59;;;9.91;100.00
29433;BME280;16405;53.964;13.448;2023-04-24T04:57:56;99785.81;;;9.81;100.00
29433;BME280;16405;53.964;13.448;2023-04-24T05:00:23;99782.31;;;9.66;100.00
29433;BME280;16405;53.964;13.448;2023-04-24T05:02:59;99784.47;;;9.74;100.00
29433;BME280;16405;53.964;13.448;2023-04-24T05:05:25;99786.09;;;9.76;100.00
29433;BME280;16405;53.964;13.448;2023-04-24T05:07:51;99786.94;;;9.77;100.00
29433;BME280;16405;53.964;13.448;2023-04-24T05:10:22;99784.44;;;9.59;100.00
29433;BME280;16405;53.964;13.448;2023-04-24T05:12:48;99784.59;;;9.72;100.00
29433;BME280;16405;53.964;13.448;2023-04-24T05:15:15;99788.88;;;9.73;100.00
29433;BME280;16405;53.964;13.448;2023-04-24T05:17:41;99783.72;;;9.72;100.00
29433;BME280;16405;53.964;13.448;2023-04-24T05:20:07;99780.50;;;9.67;100.00
29433;BME280;16405;53.964;13.448;2023-04-24T05:22:35;99776.28;;;9.64;100.00
29433;BME280;16405;53.964;13.448;2023-04-24T05:25:04;99780.91;;;9.75;100.00
29433;BME280;16405;53.964;13.448;2023-04-24T05:27:30;99787.41;;;9.83;100.00
29433;BME280;16405;53.964;13.448;2023-04-24T05:29:55;99773.56;;;9.65;100.00
29433;BME280;16405;53.964;13.448;2023-04-24T05:32:21;99764.88;;;9.49;100.00
29433;BME280;16405;53.964;13.448;2023-04-24T05:34:47;99765.00;;;9.62;100.00
29433;BME280;16405;53.964;13.448;2023-04-24T05:37:16;99773.88;;;9.75;100.00
29433;BME280;16405;53.964;13.448;2023-04-24T05:39:44;99772.34;;;9.71;100.00
29433;BME280;16405;53.964;13.448;2023-04-24T05:42:10;99775.19;;;9.82;100.00
29433;BME280;16405;53.964;13.448;2023-04-24T05:44:36;99770.22;;;9.78;100.00
29433;BME280;16405;53.964;13.448;2023-04-24T05:47:01;99762.91;;;9.83;100.00
29433;BME280;16405;53.964;13.448;2023-04-24T05:49:27;99758.53;;;9.98;100.00
29433;BME280;16405;53.964;13.448;2023-04-24T05:51:56;99764.28;;;10.04;100.00
29433;BME280;16405;53.964;13.448;2023-04-24T05:54:23;99771.69;;;10.12;100.00
29433;BME280;16405;53.964;13.448;2023-04-24T05:56:49;99774.03;;;10.17;100.00
29433;BME280;16405;53.964;13.448;2023-04-24T05:59:16;99784.56;;;10.17;100.00
29433;BME280;16405;53.964;13.448;2023-04-24T06:01:42;99785.16;;;10.22;100.00
29433;BME280;16405;53.964;13.448;2023-04-24T06:04:08;99784.69;;;10.15;100.00
29433;BME280;16405;53.964;13.448;2023-04-24T06:06:38;99790.69;;;10.17;100.00
29433;BME280;16405;53.964;13.448;2023-04-24T06:09:03;99787.78;;;10.22;100.00
29433;BME280;16405;53.964;13.448;2023-04-24T06:11:30;99789.88;;;10.31;100.00
29433;BME280;16405;53.964;13.448;2023-04-24T06:13:56;99788.69;;;10.37;100.00
29433;BME280;16405;53.964;13.448;2023-04-24T06:16:22;99788.56;;;10.38;100.00
29433;BME280;16405;53.964;13.448;2023-04-24T06:18:50;99788.97;;;10.46;100.00
29433;BME280;16405;53.964;13.448;2023-04-24T06:21:18;99792.44;;;10.47;100.00
29433;BME280;16405;53.964;13.448;2023-04-24T06:23:44;99780.38;;;10.43;100.00
29433;BME280;16405;53.964;13.448;2023-04-24T06:26:12;99787.38;;;10.44;100.00
29433;BME280;16405;53.964;13.448;2023-04-24T06:28:37;99784.25;;;10.52;100.00
29433;BME280;16405;53.964;13.448;2023-04-24T06:31:03;99781.63;;;10.66;100.00
29433;BME280;16405;53.964;13.448;2023-04-24T06:33:36;99780.66;;;10.81;100.00
29433;BME280;16405;53.964;13.448;2023-04-24T06:36:02;99778.00;;;10.96;100.00
29433;BME280;16405;53.964;13.448;2023-04-24T06:38:29;99781.94;;;11.03;100.00
29433;BME280;16405;53.964;13.448;2023-04-24T06:40:55;99779.13;;;11.06;100.00
29433;BME280;16405;53.964;13.448;2023-04-24T06:43:29;99772.91;;;11.07;100.00
29433;BME280;16405;53.964;13.448;2023-04-24T06:45:59;99774.50;;;11.09;100.00
29433;BME280;16405;53.964;13.448;2023-04-24T06:48:31;99779.59;;;11.13;100.00
29433;BME280;16405;53.964;13.448;2023-04-24T06:50:57;99781.75;;;11.33;100.00
29433;BME280;16405;53.964;13.448;2023-04-24T06:53:23;99784.19;;;11.63;100.00
29433;BME280;16405;53.964;13.448;2023-04-24T06:55:48;99783.56;;;12.00;100.00
29433;BME280;16405;53.964;13.448;2023-04-24T06:58:14;99774.38;;;12.44;100.00
29433;BME280;16405;53.964;13.448;2023-04-24T07:00:41;99780.25;;;12.86;100.00
29433;BME280;16405;53.964;13.448;2023-04-24T07:03:09;99785.31;;;13.26;100.00
29433;BME280;16405;53.964;13.448;2023-04-24T07:05:35;99789.84;;;13.96;99.67
29433;BME280;16405;53.964;13.448;2023-04-24T07:08:03;99793.78;;;14.26;96.19
29433;BME280;16405;53.964;13.448;2023-04-24T07:10:29;99798.06;;;15.39;92.04
29433;BME280;16405;53.964;13.448;2023-04-24T07:12:58;99802.34;;;17.88;84.00
29433;BME280;16405;53.964;13.448;2023-04-24T07:15:27;99806.09;;;20.53;74.92
29433;BME280;16405;53.964;13.448;2023-04-24T07:17:52;99807.63;;;22.80;66.11
29433;BME280;16405;53.964;13.448;2023-04-24T07:20:18;99797.59;;;22.65;63.37
29433;BME280;16405;53.964;13.448;2023-04-24T07:22:44;99799.94;;;22.68;62.13
29433;BME280;16405;53.964;13.448;2023-04-24T07:25:10;99809.47;;;24.04;59.25
29433;BME280;16405;53.964;13.448;2023-04-24T07:27:36;99808.34;;;23.13;60.05
29433;BME280;16405;53.964;13.448;2023-04-24T07:30:06;99800.19;;;22.26;61.31
29433;BME280;16405;53.964;13.448;2023-04-24T07:32:32;99799.38;;;22.34;61.39
29433;BME280;16405;53.964;13.448;2023-04-24T07:34:58;99785.44;;;21.48;62.46
29433;BME280;16405;53.964;13.448;2023-04-24T07:37:24;99783.47;;;20.65;64.05
29433;BME280;16405;53.964;13.448;2023-04-24T07:39:49;99785.00;;;20.76;63.68
29433;BME280;16405;53.964;13.448;2023-04-24T07:42:15;99789.22;;;20.52;64.30
29433;BME280;16405;53.964;13.448;2023-04-24T07:44:44;99782.47;;;19.96;65.50
29433;BME280;16405;53.964;13.448;2023-04-24T07:47:12;99784.13;;;19.43;66.44
29433;BME280;16405;53.964;13.448;2023-04-24T07:49:38;99782.09;;;19.09;67.32
29433;BME280;16405;53.964;13.448;2023-04-24T07:52:04;99775.88;;;18.91;67.99
29433;BME280;16405;53.964;13.448;2023-04-24T07:54:30;99781.44;;;18.79;68.80
29433;BME280;16405;53.964;13.448;2023-04-24T07:56:56;99789.03;;;19.02;69.13
29433;BME280;16405;53.964;13.448;2023-04-24T07:59:21;99784.13;;;19.25;69.04
29433;BME280;16405;53.964;13.448;2023-04-24T08:01:49;99786.75;;;19.88;67.53
29433;BME280;16405;53.964;13.448;2023-04-24T08:04:15;99792.31;;;19.95;66.45
29433;BME280;16405;53.964;13.448;2023-04-24T08:06:41;99800.88;;;20.25;65.31
29433;BME280;16405;53.964;13.448;2023-04-24T08:09:07;99804.31;;;20.61;64.20
29433;BME280;16405;53.964;13.448;2023-04-24T08:11:33;99802.28;;;20.89;61.86
29433;BME280;16405;53.964;13.448;2023-04-24T08:13:58;99806.38;;;20.67;62.50
29433;BME280;16405;53.964;13.448;2023-04-24T08:16:24;99812.59;;;20.50;61.45
29433;BME280;16405;53.964;13.448;2023-04-24T08:18:51;99819.31;;;20.54;60.98
29433;BME280;16405;53.964;13.448;2023-04-24T08:21:19;99817.19;;;20.14;62.37
29433;BME280;16405;53.964;13.448;2023-04-24T08:23:46;99813.16;;;19.28;62.34
29433;BME280;16405;53.964;13.448;2023-04-24T08:26:12;99809.63;;;18.72;62.99
29433;BME280;16405;53.964;13.448;2023-04-24T08:28:39;99802.88;;;18.31;63.84
29433;BME280;16405;53.964;13.448;2023-04-24T08:31:05;99804.66;;;18.40;65.03
29433;BME280;16405;53.964;13.448;2023-04-24T08:33:36;99806.06;;;18.44;64.46
29433;BME280;16405;53.964;13.448;2023-04-24T08:36:03;99804.25;;;18.44;64.19
29433;BME280;16405;53.964;13.448;2023-04-24T08:38:29;99811.94;;;18.95;64.25
29433;BME280;16405;53.964;13.448;2023-04-24T08:40:58;99819.16;;;19.58;63.23
29433;BME280;16405;53.964;13.448;2023-04-24T08:43:27;99826.28;;;20.03;62.10
29433;BME280;16405;53.964;13.448;2023-04-24T08:45:56;99828.84;;;20.31;60.89
29433;BME280;16405;53.964;13.448;2023-04-24T08:48:23;99844.69;;;20.32;59.45
29433;BME280;16405;53.964;13.448;2023-04-24T08:50:53;99847.59;;;20.39;59.67
29433;BME280;16405;53.964;13.448;2023-04-24T08:53:19;99849.91;;;20.34;58.80
29433;BME280;16405;53.964;13.448;2023-04-24T08:55:47;99843.81;;;20.49;58.41
29433;BME280;16405;53.964;13.448;2023-04-24T08:58:16;99835.78;;;20.49;58.45
29433;BME280;16405;53.964;13.448;2023-04-24T09:00:49;99827.25;;;20.46;58.51
29433;BME280;16405;53.964;13.448;2023-04-24T09:03:17;99832.75;;;20.44;58.94
29433;BME280;16405;53.964;13.448;2023-04-24T09:05:47;99837.34;;;20.52;59.52
29433;BME280;16405;53.964;13.448;2023-04-24T09:08:18;99842.13;;;20.66;58.40
29433;BME280;16405;53.964;13.448;2023-04-24T09:10:45;99840.63;;;20.46;57.80
29433;BME280;16405;53.964;13.448;2023-04-24T09:13:17;99840.25;;;20.59;58.23
29433;BME280;16405;53.964;13.448;2023-04-24T09:15:47;99840.84;;;20.53;57.70
29433;BME280;16405;53.964;13.448;2023-04-24T09:18:13;99835.41;;;20.62;58.53
29433;BME280;16405;53.964;13.448;2023-04-24T09:21:05;99827.03;;;19.95;57.08
29433;BME280;16405;53.964;13.448;2023-04-24T09:23:35;99832.94;;;19.81;57.78
29433;BME280;16405;53.964;13.448;2023-04-24T09:26:05;99830.75;;;19.49;58.53
29433;BME280;16405;53.964;13.448;2023-04-24T09:28:43;99828.81;;;19.23;58.89
29433;BME280;16405;53.964;13.448;2023-04-24T09:31:23;99828.69;;;19.42;60.13
29433;BME280;16405;53.964;13.448;2023-04-24T09:34:09;99838.91;;;19.65;59.33
29433;BME280;16405;53.964;13.448;2023-04-24T09:36:41;99842.03;;;19.70;59.00
29433;BME280;16405;53.964;13.448;2023-04-24T09:39:13;99841.03;;;19.43;59.23
29433;BME280;16405;53.964;13.448;2023-04-24T09:44:22;99848.22;;;19.61;59.42
29433;BME280;16405;53.964;13.448;2023-04-24T09:47:01;99856.19;;;19.88;58.94
29433;BME280;16405;53.964;13.448;2023-04-24T09:49:30;99857.19;;;20.05;57.37
29433;BME280;16405;53.964;13.448;2023-04-24T09:52:11;99853.00;;;20.65;54.84
29433;BME280;16405;53.964;13.448;2023-04-24T09:54:40;99852.88;;;20.75;54.65
29433;BME280;16405;53.964;13.448;2023-04-24T09:57:09;99848.97;;;20.95;54.12
29433;BME280;16405;53.964;13.448;2023-04-24T09:59:41;99856.38;;;21.09;54.05
29433;BME280;16405;53.964;13.448;2023-04-24T10:02:20;99861.06;;;20.55;53.20
29433;BME280;16405;53.964;13.448;2023-04-24T10:05:00;99854.44;;;20.15;53.77
29433;BME280;16405;53.964;13.448;2023-04-24T10:07:27;99846.75;;;19.94;54.46
29433;BME280;16405;53.964;13.448;2023-04-24T10:09:54;99847.19;;;20.07;54.90
29433;BME280;16405;53.964;13.448;2023-04-24T10:12:23;99859.03;;;20.49;54.37
29433;BME280;16405;53.964;13.448;2023-04-24T10:14:56;99866.28;;;20.57;54.53
29433;BME280;16405;53.964;13.448;2023-04-24T10:17:24;99871.59;;;20.75;53.23
29433;BME280;16405;53.964;13.448;2023-04-24T10:19:51;99864.75;;;21.06;53.55
29433;BME280;16405;53.964;13.448;2023-04-24T10:22:25;99866.06;;;21.02;52.84
29433;BME280;16405;53.964;13.448;2023-04-24T10:24:55;99869.53;;;20.68;53.10
29433;BME280;16405;53.964;13.448;2023-04-24T10:27:26;99864.88;;;20.08;54.59
29433;BME280;16405;53.964;13.448;2023-04-24T10:29:53;99855.47;;;19.23;55.20
29433;BME280;16405;53.964;13.448;2023-04-24T10:32:19;99859.22;;;19.02;55.57
29433;BME280;16405;53.964;13.448;2023-04-24T10:34:46;99855.09;;;18.80;56.20
29433;BME280;16405;53.964;13.448;2023-04-24T10:37:15;99838.66;;;18.85;56.13
29433;BME280;16405;53.964;13.448;2023-04-24T10:39:48;99863.53;;;19.13;56.46
29433;BME280;16405;53.964;13.448;2023-04-24T10:42:22;99867.53;;;19.55;54.83
29433;BME280;16405;53.964;13.448;2023-04-24T10:44:48;99876.38;;;19.83;54.65
29433;BME280;16405;53.964;13.448;2023-04-24T10:47:15;99881.03;;;19.81;54.36
29433;BME280;16405;53.964;13.448;2023-04-24T10:49:47;99883.00;;;19.79;53.42
29433;BME280;16405;53.964;13.448;2023-04-24T10:52:16;99883.63;;;19.63;55.28
29433;BME280;16405;53.964;13.448;2023-04-24T10:54:45;99874.00;;;19.52;55.45
29433;BME280;16405;53.964;13.448;2023-04-24T10:57:25;99875.31;;;19.66;54.12
29433;BME280;16405;53.964;13.448;2023-04-24T11:02:45;99889.88;;;19.99;55.23
29433;BME280;16405;53.964;13.448;2023-04-24T11:05:16;99890.69;;;20.00;53.38
29433;BME280;16405;53.964;13.448;2023-04-24T11:08:14;99887.81;;;20.11;52.59
29433;BME280;16405;53.964;13.448;2023-04-24T11:16:51;99896.28;;;20.68;51.20
29433;BME280;16405;53.964;13.448;2023-04-24T11:19:24;99904.50;;;21.01;52.97
29433;BME280;16405;53.964;13.448;2023-04-24T11:21:59;99901.44;;;20.88;52.66
29433;BME280;16405;53.964;13.448;2023-04-24T11:24:54;99894.63;;;20.49;51.85
29433;BME280;16405;53.964;13.448;2023-04-24T11:27:24;99894.06;;;20.02;51.57
29433;BME280;16405;53.964;13.448;2023-04-24T11:37:40;99885.19;;;19.38;53.60
29433;BME280;16405;53.964;13.448;2023-04-24T11:40:09;99884.03;;;19.40;54.63
29433;BME280;16405;53.964;13.448;2023-04-24T11:42:45;99886.03;;;19.84;54.57
29433;BME280;16405;53.964;13.448;2023-04-24T11:45:23;99885.91;;;20.03;53.38
29433;BME280;16405;53.964;13.448;2023-04-24T11:47:57;99894.81;;;20.30;53.35
29433;BME280;16405;53.964;13.448;2023-04-24T11:50:27;99883.84;;;20.15;53.00
29433;BME280;16405;53.964;13.448;2023-04-24T11:52:54;99883.31;;;19.94;53.23
29433;BME280;16405;53.964;13.448;2023-04-24T11:55:27;99871.94;;;19.92;53.29
29433;BME280;16405;53.964;13.448;2023-04-24T11:57:58;99865.06;;;20.07;52.76
29433;BME280;16405;53.964;13.448;2023-04-24T12:00:29;99870.25;;;20.53;53.04
29433;BME280;16405;53.964;13.448;2023-04-24T12:03:12;99876.53;;;21.22;52.32
29433;BME280;16405;53.964;13.448;2023-04-24T12:05:39;99875.19;;;21.77;50.58
29433;BME280;16405;53.964;13.448;2023-04-24T12:08:10;99878.59;;;22.20;50.54
29433;BME280;16405;53.964;13.448;2023-04-24T12:10:39;99867.75;;;22.38;49.11
29433;BME280;16405;53.964;13.448;2023-04-24T12:13:09;99874.25;;;22.19;48.34
29433;BME280;16405;53.964;13.448;2023-04-24T12:15:40;99866.72;;;22.30;49.26
29433;BME280;16405;53.964;13.448;2023-04-24T12:18:06;99874.44;;;22.25;49.46
29433;BME280;16405;53.964;13.448;2023-04-24T12:20:41;99866.41;;;22.25;50.07
29433;BME280;16405;53.964;13.448;2023-04-24T12:23:07;99863.38;;;22.28;50.09
29433;BME280;16405;53.964;13.448;2023-04-24T12:25:35;99856.31;;;22.03;49.51
29433;BME280;16405;53.964;13.448;2023-04-24T12:30:47;99849.75;;;21.73;50.01
29433;BME280;16405;53.964;13.448;2023-04-24T12:33:21;99843.53;;;21.64;51.04
29433;BME280;16405;53.964;13.448;2023-04-24T12:35:59;99831.72;;;21.40;50.98
29433;BME280;16405;53.964;13.448;2023-04-24T12:38:32;99838.34;;;21.54;50.93
29433;BME280;16405;53.964;13.448;2023-04-24T12:41:09;99834.41;;;21.32;50.74
29433;BME280;16405;53.964;13.448;2023-04-24T12:43:53;99817.91;;;21.02;50.35
29433;BME280;16405;53.964;13.448;2023-04-24T12:46:26;99830.56;;;20.92;51.29
29433;BME280;16405;53.964;13.448;2023-04-24T12:48:52;99826.25;;;20.65;51.69
29433;BME280;16405;53.964;13.448;2023-04-24T12:51:24;99830.28;;;20.25;52.00
29433;BME280;16405;53.964;13.448;2023-04-24T12:53:53;99814.13;;;20.08;53.48
29433;BME280;16405;53.964;13.448;2023-04-24T12:56:19;99812.78;;;20.04;53.97
29433;BME280;16405;53.964;13.448;2023-04-24T12:58:45;99813.22;;;20.00;53.43
29433;BME280;16405;53.964;13.448;2023-04-24T13:01:14;99802.16;;;19.95;54.54
29433;BME280;16405;53.964;13.448;2023-04-24T13:03:40;99799.13;;;19.90;54.65
29433;BME280;16405;53.964;13.448;2023-04-24T13:06:09;99799.66;;;19.75;55.66
29433;BME280;16405;53.964;13.448;2023-04-24T13:08:40;99794.66;;;19.44;55.95
29433;BME280;16405;53.964;13.448;2023-04-24T13:11:17;99800.25;;;19.05;56.27
29433;BME280;16405;53.964;13.448;2023-04-24T13:13:54;99784.59;;;18.45;56.72
29433;BME280;16405;53.964;13.448;2023-04-24T13:16:20;99790.88;;;17.78;58.26